^^
Station Historical Data
Daily Summary for February 28, 2018 Units:  Both    English   Metric
« Previous Day
Next Day »
Daily Weekly Monthly Yearly Custom
  High: Low: Average:
Temperature: TemperatureF °F /  -17.8 °C 63.5 °F /  17.5 °C 74.1 °F /  23.4 °C
Dew Point: DewpointF °F /  -17.8 °C 42.4 °F /  5.8 °C 50.1 °F /  10.1 °C
Humidity: Humidity% 27% 44%
Wind Speed: WindSpeedMPHmph /  0km/h - 1.7mph /  2.7km/h
Wind Gust: WindSpeedGustMPHmph /  0km/h - -
Wind- - South
Pressure: PressureIn in /  0 hPa 29.60 in /  1002.3 hPa -
Precipitation: 0.18 in /  4.57 mm    
Historical Graphs
 
 
Tabular Data for February 28, 2018
Time Temperature Dew Point Pressure Wind Wind Speed Wind Gust Humidity Rainfall Rate (Hourly) solar Conditions
TemperatureF °F /  -17.8 °C DewpointF °F /  -17.8 °C PressureInin /  0hPa Calm     Humidity% HourlyPrecipInin /  0mm SolarRadiationWatts/m^2 W/m2 Conditions
00:04 77.4 °F /  25.2 °C 44.4 °F /  6.9 °C 29.70in /  1005.6hPa SSE 0.9mph /  1.4km/h 5.0mph /  8km/h 31% 0.00in /  0mm 0.0 W/m2
00:09 77.2 °F /  25.1 °C 43.3 °F /  6.3 °C 29.71in /  1006hPa SE 2.9mph /  4.7km/h 6.0mph /  9.7km/h 30% 0.00in /  0mm 0.0 W/m2
00:14 77.2 °F /  25.1 °C 42.4 °F /  5.8 °C 29.71in /  1006hPa South 2.0mph /  3.2km/h 5.0mph /  8km/h 29% 0.00in /  0mm 0.0 W/m2
00:19 77.2 °F /  25.1 °C 42.4 °F /  5.8 °C 29.71in /  1006hPa Calm   8.0mph /  12.9km/h 29% 0.00in /  0mm 0.0 W/m2
00:24 77.4 °F /  25.2 °C 43.5 °F /  6.4 °C 29.71in /  1006hPa ESE 4.0mph /  6.4km/h 9.0mph /  14.5km/h 30% 0.00in /  0mm 0.0 W/m2
00:29 77.5 °F /  25.3 °C 43.7 °F /  6.5 °C 29.70in /  1005.6hPa East 4.0mph /  6.4km/h 8.0mph /  12.9km/h 30% 0.00in /  0mm 0.0 W/m2
00:34 77.5 °F /  25.3 °C 43.7 °F /  6.5 °C 29.70in /  1005.6hPa East 4.0mph /  6.4km/h 4.0mph /  6.4km/h 30% 0.00in /  0mm 0.0 W/m2
00:40 77.4 °F /  25.2 °C 44.4 °F /  6.9 °C 29.70in /  1005.6hPa NE 2.9mph /  4.7km/h 5.0mph /  8km/h 31% 0.00in /  0mm 0.0 W/m2
00:45 77.4 °F /  25.2 °C 44.4 °F /  6.9 °C 29.70in /  1005.6hPa East 2.9mph /  4.7km/h 6.0mph /  9.7km/h 31% 0.00in /  0mm 0.0 W/m2
00:51 77.2 °F /  25.1 °C 45.0 °F /  7.2 °C 29.70in /  1005.6hPa SE 4.9mph /  7.9km/h 7.0mph /  11.3km/h 32% 0.00in /  0mm 0.0 W/m2
00:56 77.0 °F /  25 °C 45.0 °F /  7.2 °C 29.70in /  1005.6hPa SE 10.1mph /  16.3km/h 11.0mph /  17.7km/h 32% 0.00in /  0mm 0.0 W/m2
01:01 76.8 °F /  24.9 °C 45.5 °F /  7.5 °C 29.70in /  1005.6hPa SE 2.9mph /  4.7km/h 7.0mph /  11.3km/h 33% 0.00in /  0mm 0.0 W/m2
01:06 76.6 °F /  24.8 °C 45.3 °F /  7.4 °C 29.70in /  1005.6hPa SE 4.9mph /  7.9km/h 7.0mph /  11.3km/h 33% 0.00in /  0mm 0.0 W/m2
01:11 76.5 °F /  24.7 °C 46.0 °F /  7.8 °C 29.70in /  1005.6hPa SE 4.0mph /  6.4km/h 10.0mph /  16.1km/h 34% 0.00in /  0mm 0.0 W/m2
01:16 76.3 °F /  24.6 °C 45.9 °F /  7.7 °C 29.70in /  1005.6hPa SE 2.9mph /  4.7km/h 7.0mph /  11.3km/h 34% 0.00in /  0mm 0.0 W/m2
01:21 75.9 °F /  24.4 °C 46.2 °F /  7.9 °C 29.69in /  1005.3hPa NE 4.0mph /  6.4km/h 9.0mph /  14.5km/h 35% 0.00in /  0mm 0.0 W/m2
01:27 75.7 °F /  24.3 °C 46.2 °F /  7.9 °C 29.69in /  1005.3hPa SE 0.9mph /  1.4km/h 4.0mph /  6.4km/h 35% 0.00in /  0mm 0.0 W/m2
01:32 75.6 °F /  24.2 °C 46.8 °F /  8.2 °C 29.69in /  1005.3hPa East 2.0mph /  3.2km/h 5.0mph /  8km/h 36% 0.00in /  0mm 0.0 W/m2
01:37 75.2 °F /  24 °C 46.4 °F /  8 °C 29.69in /  1005.3hPa ESE 4.9mph /  7.9km/h 9.0mph /  14.5km/h 36% 0.00in /  0mm 0.0 W/m2
01:42 75.0 °F /  23.9 °C 46.9 °F /  8.3 °C 29.69in /  1005.3hPa SE 2.0mph /  3.2km/h 7.0mph /  11.3km/h 37% 0.00in /  0mm 0.0 W/m2
01:47 74.8 °F /  23.8 °C 46.8 °F /  8.2 °C 29.69in /  1005.3hPa NE 0.9mph /  1.4km/h 2.0mph /  3.2km/h 37% 0.00in /  0mm 0.0 W/m2
01:52 74.5 °F /  23.6 °C 46.6 °F /  8.1 °C 29.69in /  1005.3hPa Calm   6.0mph /  9.7km/h 37% 0.00in /  0mm 0.0 W/m2
01:57 74.1 °F /  23.4 °C 46.9 °F /  8.3 °C 29.69in /  1005.3hPa East 4.9mph /  7.9km/h 8.0mph /  12.9km/h 38% 0.00in /  0mm 0.0 W/m2
02:02 73.9 °F /  23.3 °C 46.8 °F /  8.2 °C 29.69in /  1005.3hPa SSE 2.0mph /  3.2km/h 6.0mph /  9.7km/h 38% 0.00in /  0mm 0.0 W/m2
02:07 73.8 °F /  23.2 °C 46.6 °F /  8.1 °C 29.69in /  1005.3hPa NNE 2.9mph /  4.7km/h 7.0mph /  11.3km/h 38% 0.00in /  0mm 0.0 W/m2
02:12 73.4 °F /  23 °C 46.2 °F /  7.9 °C 29.70in /  1005.6hPa North 0.9mph /  1.4km/h 6.0mph /  9.7km/h 38% 0.00in /  0mm 0.0 W/m2
02:17 73.0 °F /  22.8 °C 45.9 °F /  7.7 °C 29.70in /  1005.6hPa NE 2.9mph /  4.7km/h 5.0mph /  8km/h 38% 0.00in /  0mm 0.0 W/m2
02:23 72.9 °F /  22.7 °C 46.4 °F /  8 °C 29.70in /  1005.6hPa East 6.0mph /  9.7km/h 6.0mph /  9.7km/h 39% 0.00in /  0mm 0.0 W/m2
02:28 72.5 °F /  22.5 °C 46.2 °F /  7.9 °C 29.70in /  1005.6hPa Calm   7.0mph /  11.3km/h 39% 0.00in /  0mm 0.0 W/m2
02:33 72.1 °F /  22.3 °C 46.4 °F /  8 °C 29.69in /  1005.3hPa East 2.0mph /  3.2km/h 5.0mph /  8km/h 40% 0.00in /  0mm 0.0 W/m2
02:38 72.0 °F /  22.2 °C 46.4 °F /  8 °C 29.69in /  1005.3hPa Calm   4.0mph /  6.4km/h 40% 0.00in /  0mm 0.0 W/m2
02:43 71.8 °F /  22.1 °C 46.8 °F /  8.2 °C 29.69in /  1005.3hPa Calm   3.0mph /  4.8km/h 41% 0.00in /  0mm 0.0 W/m2
02:48 71.4 °F /  21.9 °C 46.6 °F /  8.1 °C 29.69in /  1005.3hPa East 0.9mph /  1.4km/h 4.0mph /  6.4km/h 41% 0.00in /  0mm 0.0 W/m2
02:53 71.2 °F /  21.8 °C 46.9 °F /  8.3 °C 29.69in /  1005.3hPa Calm   3.0mph /  4.8km/h 42% 0.00in /  0mm 0.0 W/m2
02:58 70.9 °F /  21.6 °C 47.3 °F /  8.5 °C 29.69in /  1005.3hPa SE 0.9mph /  1.4km/h 4.0mph /  6.4km/h 43% 0.00in /  0mm 0.0 W/m2
03:03 70.7 °F /  21.5 °C 47.1 °F /  8.4 °C 29.69in /  1005.3hPa East 2.9mph /  4.7km/h 7.0mph /  11.3km/h 43% 0.00in /  0mm 0.0 W/m2
03:08 70.5 °F /  21.4 °C 47.5 °F /  8.6 °C 29.69in /  1005.3hPa ESE 2.0mph /  3.2km/h 6.0mph /  9.7km/h 44% 0.00in /  0mm 0.0 W/m2
03:14 70.3 °F /  21.3 °C 47.5 °F /  8.6 °C 29.69in /  1005.3hPa NNE 2.9mph /  4.7km/h 10.0mph /  16.1km/h 44% 0.00in /  0mm 0.0 W/m2
03:19 70.2 °F /  21.2 °C 47.3 °F /  8.5 °C 29.69in /  1005.3hPa Calm   5.0mph /  8km/h 44% 0.00in /  0mm 0.0 W/m2
03:24 70.2 °F /  21.2 °C 47.8 °F /  8.8 °C 29.69in /  1005.3hPa NNE 2.9mph /  4.7km/h 6.0mph /  9.7km/h 45% 0.00in /  0mm 0.0 W/m2
03:29 70.0 °F /  21.1 °C 47.7 °F /  8.7 °C 29.69in /  1005.3hPa NE 4.0mph /  6.4km/h 9.0mph /  14.5km/h 45% 0.00in /  0mm 0.0 W/m2
03:34 69.8 °F /  21 °C 47.5 °F /  8.6 °C 29.69in /  1005.3hPa NE 2.9mph /  4.7km/h 3.0mph /  4.8km/h 45% 0.00in /  0mm 0.0 W/m2
03:39 69.6 °F /  20.9 °C 47.3 °F /  8.5 °C 29.70in /  1005.6hPa North 2.0mph /  3.2km/h 4.0mph /  6.4km/h 45% 0.00in /  0mm 0.0 W/m2
03:44 69.4 °F /  20.8 °C 47.1 °F /  8.4 °C 29.70in /  1005.6hPa Calm   3.0mph /  4.8km/h 45% 0.00in /  0mm 0.0 W/m2
03:49 69.3 °F /  20.7 °C 46.9 °F /  8.3 °C 29.70in /  1005.6hPa North 2.9mph /  4.7km/h 3.0mph /  4.8km/h 45% 0.00in /  0mm 0.0 W/m2
03:54 69.1 °F /  20.6 °C 46.8 °F /  8.2 °C 29.70in /  1005.6hPa Calm   1.0mph /  1.6km/h 45% 0.00in /  0mm 0.0 W/m2
04:00 68.9 °F /  20.5 °C 45.5 °F /  7.5 °C 29.70in /  1005.6hPa Calm     43% 0.00in /  0mm 0.0 W/m2
04:05 68.5 °F /  20.3 °C 45.7 °F /  7.6 °C 29.70in /  1005.6hPa Calm     44% 0.00in /  0mm 0.0 W/m2
04:10 68.4 °F /  20.2 °C 45.0 °F /  7.2 °C 29.69in /  1005.3hPa Calm     43% 0.00in /  0mm 0.0 W/m2
04:15 68.2 °F /  20.1 °C 44.8 °F /  7.1 °C 29.69in /  1005.3hPa Calm     43% 0.00in /  0mm 0.0 W/m2
04:20 67.8 °F /  19.9 °C 45.1 °F /  7.3 °C 29.69in /  1005.3hPa Calm     44% 0.00in /  0mm 0.0 W/m2
04:25 67.6 °F /  19.8 °C 45.0 °F /  7.2 °C 29.69in /  1005.3hPa Calm     44% 0.00in /  0mm 0.0 W/m2
04:30 67.5 °F /  19.7 °C 44.8 °F /  7.1 °C 29.69in /  1005.3hPa Calm     44% 0.00in /  0mm 0.0 W/m2
04:35 67.3 °F /  19.6 °C 45.1 °F /  7.3 °C 29.69in /  1005.3hPa Calm     45% 0.00in /  0mm 0.0 W/m2
04:41 66.9 °F /  19.4 °C 45.0 °F /  7.2 °C 29.69in /  1005.3hPa Calm     45% 0.00in /  0mm 0.0 W/m2
04:46 66.7 °F /  19.3 °C 44.8 °F /  7.1 °C 29.69in /  1005.3hPa Calm     45% 0.00in /  0mm 0.0 W/m2
04:51 66.4 °F /  19.1 °C 45.0 °F /  7.2 °C 29.69in /  1005.3hPa Calm     46% 0.00in /  0mm 0.0 W/m2
04:56 66.0 °F /  18.9 °C 44.6 °F /  7 °C 29.69in /  1005.3hPa Calm     46% 0.00in /  0mm 0.0 W/m2
05:01 65.8 °F /  18.8 °C 45.0 °F /  7.2 °C 29.69in /  1005.3hPa Calm     47% 0.00in /  0mm 0.0 W/m2
05:06 65.7 °F /  18.7 °C 45.0 °F /  7.2 °C 29.69in /  1005.3hPa Calm   1.0mph /  1.6km/h 47% 0.00in /  0mm 0.0 W/m2
05:11 65.3 °F /  18.5 °C 44.6 °F /  7 °C 29.69in /  1005.3hPa Calm     47% 0.00in /  0mm 0.0 W/m2
05:16 65.1 °F /  18.4 °C 45.0 °F /  7.2 °C 29.69in /  1005.3hPa Calm     48% 0.00in /  0mm 0.0 W/m2
05:22 64.8 °F /  18.2 °C 45.1 °F /  7.3 °C 29.69in /  1005.3hPa Calm     49% 0.00in /  0mm 0.0 W/m2
05:27 64.8 °F /  18.2 °C 45.7 °F /  7.6 °C 29.69in /  1005.3hPa Calm     50% 0.00in /  0mm 0.0 W/m2
05:32 64.6 °F /  18.1 °C 47.5 °F /  8.6 °C 29.69in /  1005.3hPa Calm   1.0mph /  1.6km/h 54% 0.00in /  0mm 0.0 W/m2
05:37 64.4 °F /  18 °C 47.8 °F /  8.8 °C 29.69in /  1005.3hPa Calm     55% 0.00in /  0mm 0.0 W/m2
05:42 64.2 °F /  17.9 °C 48.2 °F /  9 °C 29.69in /  1005.3hPa Calm   1.0mph /  1.6km/h 56% 0.00in /  0mm 0.0 W/m2
05:47 64.2 °F /  17.9 °C 48.7 °F /  9.3 °C 29.69in /  1005.3hPa Calm     57% 0.00in /  0mm 0.0 W/m2
05:52 64.2 °F /  17.9 °C 49.1 °F /  9.5 °C 29.69in /  1005.3hPa Calm   2.0mph /  3.2km/h 58% 0.00in /  0mm 0.0 W/m2
05:57 64.0 °F /  17.8 °C 48.9 °F /  9.4 °C 29.69in /  1005.3hPa Calm   1.0mph /  1.6km/h 58% 0.00in /  0mm 0.0 W/m2
06:02 64.0 °F /  17.8 °C 48.9 °F /  9.4 °C 29.69in /  1005.3hPa Calm     58% 0.00in /  0mm 0.0 W/m2
06:08 64.0 °F /  17.8 °C 48.9 °F /  9.4 °C 29.70in /  1005.6hPa Calm   1.0mph /  1.6km/h 58% 0.00in /  0mm 0.0 W/m2
06:13 64.0 °F /  17.8 °C 49.5 °F /  9.7 °C 29.70in /  1005.6hPa Calm   1.0mph /  1.6km/h 59% 0.00in /  0mm 0.0 W/m2
06:18 64.0 °F /  17.8 °C 49.5 °F /  9.7 °C 29.70in /  1005.6hPa Calm   1.0mph /  1.6km/h 59% 0.00in /  0mm 0.0 W/m2
06:23 63.9 °F /  17.7 °C 49.3 °F /  9.6 °C 29.70in /  1005.6hPa Calm   1.0mph /  1.6km/h 59% 0.00in /  0mm 0.0 W/m2
06:28 63.9 °F /  17.7 °C 49.3 °F /  9.6 °C 29.70in /  1005.6hPa Calm     59% 0.00in /  0mm 0.0 W/m2
06:33 63.7 °F /  17.6 °C 49.5 °F /  9.7 °C 29.70in /  1005.6hPa Calm     60% 0.00in /  0mm 0.0 W/m2
06:38 63.7 °F /  17.6 °C 50.0 °F /  10 °C 29.70in /  1005.6hPa Calm     61% 0.00in /  0mm 0.0 W/m2
06:44 63.7 °F /  17.6 °C 50.4 °F /  10.2 °C 29.70in /  1005.6hPa Calm   1.0mph /  1.6km/h 62% 0.00in /  0mm 0.0 W/m2
06:49 63.5 °F /  17.5 °C 50.2 °F /  10.1 °C 29.70in /  1005.6hPa Calm     62% 0.00in /  0mm 0.0 W/m2
06:54 63.5 °F /  17.5 °C 50.7 °F /  10.4 °C 29.70in /  1005.6hPa Calm   1.0mph /  1.6km/h 63% 0.00in /  0mm 5.0 W/m2
06:59 63.5 °F /  17.5 °C 50.7 °F /  10.4 °C 29.70in /  1005.6hPa Calm   1.0mph /  1.6km/h 63% 0.00in /  0mm 9.0 W/m2
07:04 63.5 °F /  17.5 °C 51.4 °F /  10.8 °C 29.70in /  1005.6hPa Calm     65% 0.00in /  0mm 11.0 W/m2
07:09 63.7 °F /  17.6 °C 51.6 °F /  10.9 °C 29.70in /  1005.6hPa Calm   1.0mph /  1.6km/h 65% 0.00in /  0mm 12.0 W/m2
07:14 63.7 °F /  17.6 °C 52.2 °F /  11.2 °C 29.70in /  1005.6hPa Calm   1.0mph /  1.6km/h 66% 0.00in /  0mm 14.0 W/m2
07:19 63.7 °F /  17.6 °C 51.6 °F /  10.9 °C 29.70in /  1005.6hPa North 0.9mph /  1.4km/h 2.0mph /  3.2km/h 65% 0.00in /  0mm 16.0 W/m2
07:24 63.7 °F /  17.6 °C 51.6 °F /  10.9 °C 29.70in /  1005.6hPa Calm   1.0mph /  1.6km/h 65% 0.00in /  0mm 18.0 W/m2
07:29 63.9 °F /  17.7 °C 51.8 °F /  11 °C 29.70in /  1005.6hPa North 0.9mph /  1.4km/h 2.0mph /  3.2km/h 65% 0.00in /  0mm 18.0 W/m2
07:35 63.9 °F /  17.7 °C 51.8 °F /  11 °C 29.70in /  1005.6hPa Calm   1.0mph /  1.6km/h 65% 0.00in /  0mm 19.0 W/m2
07:40 64.0 °F /  17.8 °C 52.5 °F /  11.4 °C 29.70in /  1005.6hPa Calm   1.0mph /  1.6km/h 66% 0.00in /  0mm 21.0 W/m2
07:45 64.4 °F /  18 °C 52.9 °F /  11.6 °C 29.70in /  1005.6hPa Calm   3.0mph /  4.8km/h 66% 0.00in /  0mm 23.0 W/m2
07:50 64.8 °F /  18.2 °C 53.1 °F /  11.7 °C 29.70in /  1005.6hPa ENE 0.9mph /  1.4km/h 4.0mph /  6.4km/h 66% 0.00in /  0mm 23.0 W/m2
07:55 65.1 °F /  18.4 °C 53.4 °F /  11.9 °C 29.70in /  1005.6hPa East 2.9mph /  4.7km/h 5.0mph /  8km/h 66% 0.00in /  0mm 25.0 W/m2
08:00 65.7 °F /  18.7 °C 54.0 °F /  12.2 °C 29.71in /  1006hPa SE 0.9mph /  1.4km/h 6.0mph /  9.7km/h 66% 0.00in /  0mm 25.0 W/m2
08:05 66.6 °F /  19.2 °C 54.5 °F /  12.5 °C 29.71in /  1006hPa East 2.0mph /  3.2km/h 4.0mph /  6.4km/h 65% 0.00in /  0mm 28.0 W/m2
08:10 67.1 °F /  19.5 °C 54.5 °F /  12.5 °C 29.71in /  1006hPa ENE 2.9mph /  4.7km/h 4.0mph /  6.4km/h 64% 0.00in /  0mm 30.0 W/m2
08:15 67.6 °F /  19.8 °C 54.7 °F /  12.6 °C 29.71in /  1006hPa ESE 2.0mph /  3.2km/h 5.0mph /  8km/h 63% 0.00in /  0mm 28.0 W/m2
08:21 68.4 °F /  20.2 °C 54.9 °F /  12.7 °C 29.71in /  1006hPa NNE 0.9mph /  1.4km/h 4.0mph /  6.4km/h 62% 0.00in /  0mm 30.0 W/m2
08:26 68.9 °F /  20.5 °C 54.9 °F /  12.7 °C 29.71in /  1006hPa ENE 2.9mph /  4.7km/h 3.0mph /  4.8km/h 61% 0.00in /  0mm 30.0 W/m2
08:31 69.4 °F /  20.8 °C 55.4 °F /  13 °C 29.71in /  1006hPa Calm   2.0mph /  3.2km/h 61% 0.00in /  0mm 40.0 W/m2
08:36 70.0 °F /  21.1 °C 55.4 °F /  13 °C 29.71in /  1006hPa NNE 2.9mph /  4.7km/h 7.0mph /  11.3km/h 60% 0.00in /  0mm 32.0 W/m2
08:41 70.3 °F /  21.3 °C 55.4 °F /  13 °C 29.71in /  1006hPa Calm   3.0mph /  4.8km/h 59% 0.00in /  0mm 33.0 W/m2
08:46 70.9 °F /  21.6 °C 55.4 °F /  13 °C 29.72in /  1006.3hPa Calm   4.0mph /  6.4km/h 58% 0.00in /  0mm 33.0 W/m2
08:51 71.2 °F /  21.8 °C 55.2 °F /  12.9 °C 29.72in /  1006.3hPa Calm   5.0mph /  8km/h 57% 0.00in /  0mm 39.0 W/m2
08:56 71.6 °F /  22 °C 55.0 °F /  12.8 °C 29.72in /  1006.3hPa NW 0.9mph /  1.4km/h 4.0mph /  6.4km/h 56% 0.00in /  0mm 102.0 W/m2
09:01 72.1 °F /  22.3 °C 55.6 °F /  13.1 °C 29.72in /  1006.3hPa NE 0.9mph /  1.4km/h 6.0mph /  9.7km/h 56% 0.00in /  0mm 497.0 W/m2
09:07 72.5 °F /  22.5 °C 55.4 °F /  13 °C 29.72in /  1006.3hPa NNW 2.9mph /  4.7km/h 5.0mph /  8km/h 55% 0.00in /  0mm 517.0 W/m2
09:12 73.0 °F /  22.8 °C 55.4 °F /  13 °C 29.72in /  1006.3hPa NE 6.0mph /  9.7km/h 7.0mph /  11.3km/h 54% 0.00in /  0mm 536.0 W/m2
09:17 73.6 °F /  23.1 °C 55.4 °F /  13 °C 29.72in /  1006.3hPa NNW 2.0mph /  3.2km/h 5.0mph /  8km/h 53% 0.00in /  0mm 555.0 W/m2
09:22 74.1 °F /  23.4 °C 55.4 °F /  13 °C 29.72in /  1006.3hPa NNW 4.0mph /  6.4km/h 5.0mph /  8km/h 52% 0.00in /  0mm 575.0 W/m2
09:27 74.7 °F /  23.7 °C 55.4 °F /  13 °C 29.72in /  1006.3hPa NNW 4.0mph /  6.4km/h 4.0mph /  6.4km/h 51% 0.00in /  0mm 591.0 W/m2
09:32 75.2 °F /  24 °C 55.2 °F /  12.9 °C 29.72in /  1006.3hPa NNE 6.0mph /  9.7km/h 7.0mph /  11.3km/h 50% 0.00in /  0mm 612.0 W/m2
09:37 76.3 °F /  24.6 °C 55.2 °F /  12.9 °C 29.72in /  1006.3hPa NW 2.0mph /  3.2km/h 7.0mph /  11.3km/h 48% 0.00in /  0mm 629.0 W/m2
09:42 77.2 °F /  25.1 °C 55.4 °F /  13 °C 29.72in /  1006.3hPa Calm   2.0mph /  3.2km/h 47% 0.00in /  0mm 645.0 W/m2
09:47 77.5 °F /  25.3 °C 54.5 °F /  12.5 °C 29.72in /  1006.3hPa NNE 4.0mph /  6.4km/h 6.0mph /  9.7km/h 45% 0.00in /  0mm 664.0 W/m2
09:52 78.3 °F /  25.7 °C 55.2 °F /  12.9 °C 29.72in /  1006.3hPa West 0.9mph /  1.4km/h 4.0mph /  6.4km/h 45% 0.00in /  0mm 679.0 W/m2
09:58 79.0 °F /  26.1 °C 55.2 °F /  12.9 °C 29.71in /  1006hPa NNW 2.9mph /  4.7km/h 6.0mph /  9.7km/h 44% 0.00in /  0mm 698.0 W/m2
10:03 79.3 °F /  26.3 °C 54.9 °F /  12.7 °C 29.71in /  1006hPa NW 2.0mph /  3.2km/h 3.0mph /  4.8km/h 43% 0.00in /  0mm 715.0 W/m2
10:08 80.1 °F /  26.7 °C 54.9 °F /  12.7 °C 29.72in /  1006.3hPa NNE 4.0mph /  6.4km/h 7.0mph /  11.3km/h 42% 0.00in /  0mm 731.0 W/m2
10:13 80.4 °F /  26.9 °C 54.5 °F /  12.5 °C 29.72in /  1006.3hPa NNW 2.0mph /  3.2km/h 4.0mph /  6.4km/h 41% 0.00in /  0mm 744.0 W/m2
10:19 81.1 °F /  27.3 °C 54.5 °F /  12.5 °C 29.71in /  1006hPa North 4.9mph /  7.9km/h 5.0mph /  8km/h 40% 0.00in /  0mm 765.0 W/m2
10:24 81.3 °F /  27.4 °C 54.0 °F /  12.2 °C 29.71in /  1006hPa Calm   1.0mph /  1.6km/h 39% 0.00in /  0mm 777.0 W/m2
10:29 81.5 °F /  27.5 °C 54.1 °F /  12.3 °C 29.71in /  1006hPa SW 0.9mph /  1.4km/h 2.0mph /  3.2km/h 39% 0.00in /  0mm 788.0 W/m2
10:35 81.9 °F /  27.7 °C 55.2 °F /  12.9 °C 29.71in /  1006hPa Calm   4.0mph /  6.4km/h 40% 0.00in /  0mm 803.0 W/m2
10:41 81.9 °F /  27.7 °C 55.2 °F /  12.9 °C 29.71in /  1006hPa SW 2.0mph /  3.2km/h 3.0mph /  4.8km/h 40% 0.00in /  0mm 838.0 W/m2
10:46 81.7 °F /  27.6 °C 55.0 °F /  12.8 °C 29.70in /  1005.6hPa Calm   1.0mph /  1.6km/h 40% 0.00in /  0mm 853.0 W/m2
10:51 82.0 °F /  27.8 °C 54.7 °F /  12.6 °C 29.71in /  1006hPa Calm   2.0mph /  3.2km/h 39% 0.00in /  0mm 870.0 W/m2
10:56 82.6 °F /  28.1 °C 54.3 °F /  12.4 °C 29.71in /  1006hPa NNW 0.9mph /  1.4km/h 7.0mph /  11.3km/h 38% 0.00in /  0mm 911.0 W/m2
11:02 83.1 °F /  28.4 °C 54.9 °F /  12.7 °C 29.70in /  1005.6hPa Calm   3.0mph /  4.8km/h 38% 0.00in /  0mm 930.0 W/m2
11:07 83.5 °F /  28.6 °C 54.5 °F /  12.5 °C 29.70in /  1005.6hPa Calm   6.0mph /  9.7km/h 37% 0.00in /  0mm 976.0 W/m2
11:13 82.9 °F /  28.3 °C 54.7 °F /  12.6 °C 29.70in /  1005.6hPa Calm   2.0mph /  3.2km/h 38% 0.00in /  0mm 183.0 W/m2
11:19 82.4 °F /  28 °C 54.3 °F /  12.4 °C 29.70in /  1005.6hPa West 2.0mph /  3.2km/h 3.0mph /  4.8km/h 38% 0.00in /  0mm 960.0 W/m2
11:24 82.6 °F /  28.1 °C 54.3 °F /  12.4 °C 29.70in /  1005.6hPa WSW 2.0mph /  3.2km/h 5.0mph /  8km/h 38% 0.00in /  0mm 1129.0 W/m2
11:29 82.6 °F /  28.1 °C 54.3 °F /  12.4 °C 29.70in /  1005.6hPa South 2.0mph /  3.2km/h 2.0mph /  3.2km/h 38% 0.00in /  0mm 1113.0 W/m2
11:34 83.5 °F /  28.6 °C 51.4 °F /  10.8 °C 29.70in /  1005.6hPa Calm   6.0mph /  9.7km/h 33% 0.00in /  0mm 323.0 W/m2
11:39 84.4 °F /  29.1 °C 51.3 °F /  10.7 °C 29.70in /  1005.6hPa Calm   6.0mph /  9.7km/h 32% 0.00in /  0mm 1137.0 W/m2
11:45 85.3 °F /  29.6 °C 50.4 °F /  10.2 °C 29.69in /  1005.3hPa North 0.9mph /  1.4km/h 3.0mph /  4.8km/h 30% 0.00in /  0mm 330.0 W/m2
11:50 85.3 °F /  29.6 °C 51.3 °F /  10.7 °C 29.69in /  1005.3hPa SSE 0.9mph /  1.4km/h 2.0mph /  3.2km/h 31% 0.00in /  0mm 376.0 W/m2
11:55 85.1 °F /  29.5 °C 50.2 °F /  10.1 °C 29.69in /  1005.3hPa NW 4.0mph /  6.4km/h 7.0mph /  11.3km/h 30% 0.00in /  0mm 357.0 W/m2
12:00 85.1 °F /  29.5 °C 51.1 °F /  10.6 °C 29.68in /  1005hPa West 2.0mph /  3.2km/h 6.0mph /  9.7km/h 31% 0.00in /  0mm 1169.0 W/m2
12:05 85.1 °F /  29.5 °C 50.2 °F /  10.1 °C 29.68in /  1005hPa SE 2.9mph /  4.7km/h 3.0mph /  4.8km/h 30% 0.00in /  0mm 1137.0 W/m2
12:10 84.9 °F /  29.4 °C 50.0 °F /  10 °C 29.68in /  1005hPa Calm   5.0mph /  8km/h 30% 0.00in /  0mm 1232.0 W/m2
12:16 85.6 °F /  29.8 °C 50.7 °F /  10.4 °C 29.68in /  1005hPa ESE 2.0mph /  3.2km/h 6.0mph /  9.7km/h 30% 0.00in /  0mm 1201.0 W/m2
12:21 86.9 °F /  30.5 °C 49.8 °F /  9.9 °C 29.68in /  1005hPa ENE 2.0mph /  3.2km/h 7.0mph /  11.3km/h 28% 0.00in /  0mm 1213.0 W/m2
12:26 87.4 °F /  30.8 °C 50.4 °F /  10.2 °C 29.68in /  1005hPa SE 2.9mph /  4.7km/h 5.0mph /  8km/h 28% 0.00in /  0mm 281.0 W/m2
12:31 87.3 °F /  30.7 °C 49.3 °F /  9.6 °C 29.68in /  1005hPa East 0.9mph /  1.4km/h 5.0mph /  8km/h 27% 0.00in /  0mm 306.0 W/m2
12:36 87.1 °F /  30.6 °C 49.1 °F /  9.5 °C 29.67in /  1004.6hPa SE 2.0mph /  3.2km/h 3.0mph /  4.8km/h 27% 0.00in /  0mm 308.0 W/m2
12:41 86.5 °F /  30.3 °C 49.6 °F /  9.8 °C 29.67in /  1004.6hPa Calm   1.0mph /  1.6km/h 28% 0.00in /  0mm 315.0 W/m2
12:46 86.2 °F /  30.1 °C 49.3 °F /  9.6 °C 29.67in /  1004.6hPa Calm   1.0mph /  1.6km/h 28% 0.00in /  0mm 350.0 W/m2
12:51 85.6 °F /  29.8 °C 49.8 °F /  9.9 °C 29.67in /  1004.6hPa NNE 4.0mph /  6.4km/h 5.0mph /  8km/h 29% 0.00in /  0mm 209.0 W/m2
12:56 85.5 °F /  29.7 °C 48.6 °F /  9.2 °C 29.67in /  1004.6hPa NNW 4.0mph /  6.4km/h 8.0mph /  12.9km/h 28% 0.00in /  0mm 193.0 W/m2
13:01 85.1 °F /  29.5 °C 49.3 °F /  9.6 °C 29.67in /  1004.6hPa East 2.9mph /  4.7km/h 3.0mph /  4.8km/h 29% 0.00in /  0mm 181.0 W/m2
13:07 84.7 °F /  29.3 °C 49.8 °F /  9.9 °C 29.67in /  1004.6hPa North 0.9mph /  1.4km/h 3.0mph /  4.8km/h 30% 0.00in /  0mm 179.0 W/m2
13:12 84.6 °F /  29.2 °C 49.6 °F /  9.8 °C 29.66in /  1004.3hPa Calm   5.0mph /  8km/h 30% 0.00in /  0mm 213.0 W/m2
13:17 84.4 °F /  29.1 °C 49.6 °F /  9.8 °C 29.66in /  1004.3hPa ENE 2.9mph /  4.7km/h 8.0mph /  12.9km/h 30% 0.00in /  0mm 207.0 W/m2
13:22 83.8 °F /  28.8 °C 49.1 °F /  9.5 °C 29.66in /  1004.3hPa NNE 0.9mph /  1.4km/h 4.0mph /  6.4km/h 30% 0.00in /  0mm 239.0 W/m2
13:27 83.8 °F /  28.8 °C 50.0 °F /  10 °C 29.65in /  1003.9hPa Calm   1.0mph /  1.6km/h 31% 0.00in /  0mm 297.0 W/m2
13:32 84.0 °F /  28.9 °C 50.2 °F /  10.1 °C 29.65in /  1003.9hPa Calm   3.0mph /  4.8km/h 31% 0.00in /  0mm 1121.0 W/m2
13:37 84.0 °F /  28.9 °C 49.3 °F /  9.6 °C 29.65in /  1003.9hPa North 0.9mph /  1.4km/h 5.0mph /  8km/h 30% 0.00in /  0mm 462.0 W/m2
13:42 84.6 °F /  29.2 °C 48.7 °F /  9.3 °C 29.65in /  1003.9hPa North 0.9mph /  1.4km/h 3.0mph /  4.8km/h 29% 0.00in /  0mm 425.0 W/m2
13:47 85.3 °F /  29.6 °C 49.5 °F /  9.7 °C 29.64in /  1003.6hPa SW 0.9mph /  1.4km/h 3.0mph /  4.8km/h 29% 0.00in /  0mm 1136.0 W/m2
13:53 85.6 °F /  29.8 °C 48.7 °F /  9.3 °C 29.64in /  1003.6hPa SE 0.9mph /  1.4km/h 5.0mph /  8km/h 28% 0.00in /  0mm 1220.0 W/m2
13:58 86.0 °F /  30 °C 49.1 °F /  9.5 °C 29.64in /  1003.6hPa WNW 4.0mph /  6.4km/h 6.0mph /  9.7km/h 28% 0.00in /  0mm 174.0 W/m2
14:03 86.0 °F /  30 °C 50.0 °F /  10 °C 29.64in /  1003.6hPa NW 0.9mph /  1.4km/h 3.0mph /  4.8km/h 29% 0.00in /  0mm 295.0 W/m2
14:08 85.8 °F /  29.9 °C 50.7 °F /  10.4 °C 29.64in /  1003.6hPa NW 2.0mph /  3.2km/h 8.0mph /  12.9km/h 30% 0.00in /  0mm 861.0 W/m2
14:13 85.6 °F /  29.8 °C 52.3 °F /  11.3 °C 29.64in /  1003.6hPa WNW 2.0mph /  3.2km/h 7.0mph /  11.3km/h 32% 0.00in /  0mm 329.0 W/m2
14:18 85.6 °F /  29.8 °C 52.3 °F /  11.3 °C 29.63in /  1003.3hPa NW 2.9mph /  4.7km/h 10.0mph /  16.1km/h 32% 0.00in /  0mm 622.0 W/m2
14:23 85.5 °F /  29.7 °C 53.1 °F /  11.7 °C 29.63in /  1003.3hPa WNW 2.9mph /  4.7km/h 9.0mph /  14.5km/h 33% 0.00in /  0mm 350.0 W/m2
14:29 84.9 °F /  29.4 °C 52.5 °F /  11.4 °C 29.62in /  1002.9hPa NNE 0.9mph /  1.4km/h 7.0mph /  11.3km/h 33% 0.00in /  0mm 410.0 W/m2
14:34 85.3 °F /  29.6 °C 52.9 °F /  11.6 °C 29.63in /  1003.3hPa NNW 6.0mph /  9.7km/h 9.0mph /  14.5km/h 33% 0.00in /  0mm 1150.0 W/m2
14:39 85.8 °F /  29.9 °C 52.5 °F /  11.4 °C 29.63in /  1003.3hPa WNW 0.9mph /  1.4km/h 8.0mph /  12.9km/h 32% 0.00in /  0mm 1086.0 W/m2
14:44 86.4 °F /  30.2 °C 53.1 °F /  11.7 °C 29.63in /  1003.3hPa WNW 0.9mph /  1.4km/h 7.0mph /  11.3km/h 32% 0.00in /  0mm 255.0 W/m2
14:49 86.2 °F /  30.1 °C 52.9 °F /  11.6 °C 29.63in /  1003.3hPa North 6.0mph /  9.7km/h 8.0mph /  12.9km/h 32% 0.00in /  0mm 427.0 W/m2
14:54 85.6 °F /  29.8 °C 52.3 °F /  11.3 °C 29.62in /  1002.9hPa Calm   5.0mph /  8km/h 32% 0.00in /  0mm 309.0 W/m2
14:59 85.5 °F /  29.7 °C 52.2 °F /  11.2 °C 29.62in /  1002.9hPa NW 4.0mph /  6.4km/h 7.0mph /  11.3km/h 32% 0.00in /  0mm 350.0 W/m2
15:05 85.5 °F /  29.7 °C 51.4 °F /  10.8 °C 29.62in /  1002.9hPa Calm   10.0mph /  16.1km/h 31% 0.00in /  0mm 302.0 W/m2
15:10 85.6 °F /  29.8 °C 51.6 °F /  10.9 °C 29.62in /  1002.9hPa NNW 4.9mph /  7.9km/h 8.0mph /  12.9km/h 31% 0.00in /  0mm 330.0 W/m2
15:15 86.0 °F /  30 °C 50.9 °F /  10.5 °C 29.62in /  1002.9hPa NW 2.0mph /  3.2km/h 11.0mph /  17.7km/h 30% 0.00in /  0mm 1060.0 W/m2
15:20 87.1 °F /  30.6 °C 50.9 °F /  10.5 °C 29.62in /  1002.9hPa NNW 6.0mph /  9.7km/h 9.0mph /  14.5km/h 29% 0.00in /  0mm 1058.0 W/m2
15:25 88.0 °F /  31.1 °C 51.8 °F /  11 °C 29.62in /  1002.9hPa WSW 2.0mph /  3.2km/h 7.0mph /  11.3km/h 29% 0.00in /  0mm 260.0 W/m2
15:30 87.6 °F /  30.9 °C 52.3 °F /  11.3 °C 29.61in /  1002.6hPa NW 4.9mph /  7.9km/h 6.0mph /  9.7km/h 30% 0.00in /  0mm 928.0 W/m2
15:35 87.4 °F /  30.8 °C 52.2 °F /  11.2 °C 29.61in /  1002.6hPa West 2.0mph /  3.2km/h 5.0mph /  8km/h 30% 0.00in /  0mm 918.0 W/m2
15:40 87.6 °F /  30.9 °C 51.4 °F /  10.8 °C 29.60in /  1002.3hPa NW 0.9mph /  1.4km/h 6.0mph /  9.7km/h 29% 0.00in /  0mm 942.0 W/m2
15:45 87.6 °F /  30.9 °C 52.3 °F /  11.3 °C 29.60in /  1002.3hPa WSW 0.9mph /  1.4km/h 11.0mph /  17.7km/h 30% 0.00in /  0mm 550.0 W/m2
15:50 87.1 °F /  30.6 °C 52.7 °F /  11.5 °C 29.60in /  1002.3hPa West 4.9mph /  7.9km/h 8.0mph /  12.9km/h 31% 0.00in /  0mm 225.0 W/m2
15:55 86.4 °F /  30.2 °C 53.1 °F /  11.7 °C 29.60in /  1002.3hPa West 2.0mph /  3.2km/h 8.0mph /  12.9km/h 32% 0.00in /  0mm 884.0 W/m2
16:01 86.0 °F /  30 °C 55.9 °F /  13.3 °C 29.60in /  1002.3hPa North 0.9mph /  1.4km/h 7.0mph /  11.3km/h 36% 0.00in /  0mm 141.0 W/m2
16:06 84.4 °F /  29.1 °C 61.9 °F /  16.6 °C 29.61in /  1002.6hPa Calm   7.0mph /  11.3km/h 47% 0.07in /  1.78mm 116.0 W/m2
16:11 81.0 °F /  27.2 °C 62.8 °F /  17.1 °C 29.61in /  1002.6hPa NW 8.9mph /  14.3km/h 9.0mph /  14.5km/h 54% 0.13in /  3.3mm 113.0 W/m2
16:16 76.1 °F /  24.5 °C 60.3 °F /  15.7 °C 29.60in /  1002.3hPa North 2.9mph /  4.7km/h 10.0mph /  16.1km/h 58% 0.18in /  4.57mm 123.0 W/m2
16:21 73.2 °F /  22.9 °C 61.5 °F /  16.4 °C 29.60in /  1002.3hPa Calm     67% 0.18in /  4.57mm 130.0 W/m2
16:26 71.8 °F /  22.1 °C 61.0 °F /  16.1 °C 29.60in /  1002.3hPa Calm   3.0mph /  4.8km/h 69% 0.18in /  4.57mm 127.0 W/m2
16:31 71.1 °F /  21.7 °C 62.8 °F /  17.1 °C 29.61in /  1002.6hPa Calm     75% 0.18in /  4.57mm 128.0 W/m2
16:36 70.5 °F /  21.4 °C 63.3 °F /  17.4 °C 29.61in /  1002.6hPa NNE 0.9mph /  1.4km/h 1.0mph /  1.6km/h 78% 0.18in /  4.57mm 118.0 W/m2
16:41 70.2 °F /  21.2 °C 63.3 °F /  17.4 °C 29.61in /  1002.6hPa NNE 0.9mph /  1.4km/h 1.0mph /  1.6km/h 79% 0.18in /  4.57mm 160.0 W/m2
16:46 70.2 °F /  21.2 °C 62.6 °F /  17 °C 29.62in /  1002.9hPa Calm   4.0mph /  6.4km/h 77% 0.18in /  4.57mm 195.0 W/m2
16:52 70.3 °F /  21.3 °C 57.2 °F /  14 °C 29.62in /  1002.9hPa WSW 2.0mph /  3.2km/h 11.0mph /  17.7km/h 63% 0.18in /  4.57mm 174.0 W/m2
16:57 71.1 °F /  21.7 °C 56.8 °F /  13.8 °C 29.62in /  1002.9hPa SW 0.9mph /  1.4km/h 10.0mph /  16.1km/h 61% 0.18in /  4.57mm 156.0 W/m2
17:02 71.4 °F /  21.9 °C 55.4 °F /  13 °C 29.63in /  1003.3hPa WSW 2.9mph /  4.7km/h 9.0mph /  14.5km/h 57% 0.18in /  4.57mm 148.0 W/m2
17:07 72.3 °F /  22.4 °C 54.1 °F /  12.3 °C 29.63in /  1003.3hPa WSW 2.9mph /  4.7km/h 12.0mph /  19.3km/h 53% 0.09in /  2.29mm 169.0 W/m2
17:12 73.2 °F /  22.9 °C 54.0 °F /  12.2 °C 29.63in /  1003.3hPa West 8.1mph /  13km/h 16.0mph /  25.7km/h 51% 0.03in /  0.76mm 142.0 W/m2
17:17 73.8 °F /  23.2 °C 54.5 °F /  12.5 °C 29.64in /  1003.6hPa South 4.0mph /  6.4km/h 10.0mph /  16.1km/h 51% 0.00in /  0mm 135.0 W/m2
17:22 73.9 °F /  23.3 °C 53.6 °F /  12 °C 29.65in /  1003.9hPa West 2.9mph /  4.7km/h 10.0mph /  16.1km/h 49% 0.00in /  0mm 285.0 W/m2
17:27 74.3 °F /  23.5 °C 54.0 °F /  12.2 °C 29.65in /  1003.9hPa West 6.9mph /  11.1km/h 13.0mph /  20.9km/h 49% 0.00in /  0mm 489.0 W/m2
17:32 75.0 °F /  23.9 °C 54.0 °F /  12.2 °C 29.65in /  1003.9hPa NW 4.9mph /  7.9km/h 13.0mph /  20.9km/h 48% 0.00in /  0mm 478.0 W/m2
17:38 75.2 °F /  24 °C 53.6 °F /  12 °C 29.65in /  1003.9hPa SSW 4.0mph /  6.4km/h 11.0mph /  17.7km/h 47% 0.00in /  0mm 181.0 W/m2
17:43 75.0 °F /  23.9 °C 52.2 °F /  11.2 °C 29.65in /  1003.9hPa NW 2.9mph /  4.7km/h 8.0mph /  12.9km/h 45% 0.00in /  0mm 134.0 W/m2
17:48 74.8 °F /  23.8 °C 51.4 °F /  10.8 °C 29.65in /  1003.9hPa NW 6.9mph /  11.1km/h 10.0mph /  16.1km/h 44% 0.00in /  0mm 105.0 W/m2
17:53 74.5 °F /  23.6 °C 51.1 °F /  10.6 °C 29.65in /  1003.9hPa WSW 10.1mph /  16.3km/h 10.1mph /  16.3km/h 44% 0.00in /  0mm 83.0 W/m2
17:59 74.3 °F /  23.5 °C 50.9 °F /  10.5 °C 29.65in /  1003.9hPa WSW 2.0mph /  3.2km/h 8.0mph /  12.9km/h 44% 0.00in /  0mm 69.0 W/m2
18:04 74.1 °F /  23.4 °C 50.9 °F /  10.5 °C 29.65in /  1003.9hPa WSW 8.1mph /  13km/h 8.1mph /  13km/h 44% 0.00in /  0mm 67.0 W/m2
18:09 74.1 °F /  23.4 °C 50.9 °F /  10.5 °C 29.65in /  1003.9hPa WSW 6.9mph /  11.1km/h 9.0mph /  14.5km/h 44% 0.00in /  0mm 67.0 W/m2
18:14 74.1 °F /  23.4 °C 50.9 °F /  10.5 °C 29.65in /  1003.9hPa WNW 6.9mph /  11.1km/h 10.0mph /  16.1km/h 44% 0.00in /  0mm 65.0 W/m2
18:19 74.5 °F /  23.6 °C 52.3 °F /  11.3 °C 29.65in /  1003.9hPa SW 2.0mph /  3.2km/h 4.0mph /  6.4km/h 46% 0.00in /  0mm 79.0 W/m2
18:25 74.7 °F /  23.7 °C 51.3 °F /  10.7 °C 29.66in /  1004.3hPa West 4.9mph /  7.9km/h 9.0mph /  14.5km/h 44% 0.00in /  0mm 47.0 W/m2
18:30 74.7 °F /  23.7 °C 51.3 °F /  10.7 °C 29.66in /  1004.3hPa WSW 2.0mph /  3.2km/h 5.0mph /  8km/h 44% 0.00in /  0mm 42.0 W/m2
18:35 74.5 °F /  23.6 °C 51.1 °F /  10.6 °C 29.66in /  1004.3hPa SW 2.9mph /  4.7km/h 7.0mph /  11.3km/h 44% 0.00in /  0mm 44.0 W/m2
18:40 74.1 °F /  23.4 °C 51.4 °F /  10.8 °C 29.66in /  1004.3hPa WSW 4.9mph /  7.9km/h 5.0mph /  8km/h 45% 0.00in /  0mm 37.0 W/m2
18:45 74.1 °F /  23.4 °C 50.9 °F /  10.5 °C 29.66in /  1004.3hPa West 0.9mph /  1.4km/h 5.0mph /  8km/h 44% 0.00in /  0mm 32.0 W/m2
18:50 74.1 °F /  23.4 °C 50.9 °F /  10.5 °C 29.66in /  1004.3hPa West 2.9mph /  4.7km/h 5.0mph /  8km/h 44% 0.00in /  0mm 42.0 W/m2
18:55 74.1 °F /  23.4 °C 50.2 °F /  10.1 °C 29.66in /  1004.3hPa WNW 2.9mph /  4.7km/h 8.0mph /  12.9km/h 43% 0.00in /  0mm 19.0 W/m2
19:00 74.1 °F /  23.4 °C 50.2 °F /  10.1 °C 29.66in /  1004.3hPa Calm   6.0mph /  9.7km/h 43% 0.00in /  0mm 14.0 W/m2
19:05 74.1 °F /  23.4 °C 49.6 °F /  9.8 °C 29.67in /  1004.6hPa Calm   6.0mph /  9.7km/h 42% 0.00in /  0mm 11.0 W/m2
19:11 73.9 °F /  23.3 °C 50.7 °F /  10.4 °C 29.67in /  1004.6hPa Calm   3.0mph /  4.8km/h 44% 0.00in /  0mm 7.0 W/m2
19:16 73.9 °F /  23.3 °C 50.7 °F /  10.4 °C 29.67in /  1004.6hPa Calm   4.0mph /  6.4km/h 44% 0.00in /  0mm 5.0 W/m2
19:21 73.8 °F /  23.2 °C 50.5 °F /  10.3 °C 29.67in /  1004.6hPa Calm   3.0mph /  4.8km/h 44% 0.00in /  0mm 0.0 W/m2
19:26 73.8 °F /  23.2 °C 49.8 °F /  9.9 °C 29.67in /  1004.6hPa Calm   5.0mph /  8km/h 43% 0.00in /  0mm 0.0 W/m2
19:31 73.6 °F /  23.1 °C 49.6 °F /  9.8 °C 29.67in /  1004.6hPa WSW 2.9mph /  4.7km/h 8.0mph /  12.9km/h 43% 0.00in /  0mm 0.0 W/m2
19:36 73.4 °F /  23 °C 49.5 °F /  9.7 °C 29.67in /  1004.6hPa WSW 2.0mph /  3.2km/h 5.0mph /  8km/h 43% 0.00in /  0mm 0.0 W/m2
19:41 73.2 °F /  22.9 °C 49.5 °F /  9.7 °C 29.68in /  1005hPa Calm   5.0mph /  8km/h 43% 0.00in /  0mm 0.0 W/m2
19:46 73.2 °F /  22.9 °C 49.5 °F /  9.7 °C 29.68in /  1005hPa WSW 4.9mph /  7.9km/h 6.0mph /  9.7km/h 43% 0.00in /  0mm 0.0 W/m2
19:51 73.0 °F /  22.8 °C 49.3 °F /  9.6 °C 29.68in /  1005hPa WSW 2.0mph /  3.2km/h 6.0mph /  9.7km/h 43% 0.00in /  0mm 0.0 W/m2
19:56 72.9 °F /  22.7 °C 49.1 °F /  9.5 °C 29.68in /  1005hPa WSW 0.9mph /  1.4km/h 7.0mph /  11.3km/h 43% 0.00in /  0mm 0.0 W/m2
20:02 72.7 °F /  22.6 °C 49.5 °F /  9.7 °C 29.69in /  1005.3hPa WSW 4.0mph /  6.4km/h 7.0mph /  11.3km/h 44% 0.00in /  0mm 0.0 W/m2
20:07 72.5 °F /  22.5 °C 48.7 °F /  9.3 °C 29.69in /  1005.3hPa SW 0.9mph /  1.4km/h 5.0mph /  8km/h 43% 0.00in /  0mm 0.0 W/m2
20:12 72.3 °F /  22.4 °C 49.1 °F /  9.5 °C 29.69in /  1005.3hPa WSW 2.0mph /  3.2km/h 5.0mph /  8km/h 44% 0.00in /  0mm 0.0 W/m2
20:17 72.1 °F /  22.3 °C 49.1 °F /  9.5 °C 29.69in /  1005.3hPa WSW 0.9mph /  1.4km/h 8.0mph /  12.9km/h 44% 0.00in /  0mm 0.0 W/m2
20:22 72.0 °F /  22.2 °C 49.5 °F /  9.7 °C 29.70in /  1005.6hPa WSW 4.0mph /  6.4km/h 4.0mph /  6.4km/h 45% 0.00in /  0mm 0.0 W/m2
20:27 71.8 °F /  22.1 °C 49.3 °F /  9.6 °C 29.70in /  1005.6hPa Calm   3.0mph /  4.8km/h 45% 0.00in /  0mm 0.0 W/m2
20:32 71.4 °F /  21.9 °C 48.4 °F /  9.1 °C 29.70in /  1005.6hPa Calm   3.0mph /  4.8km/h 44% 0.00in /  0mm 0.0 W/m2
20:37 71.4 °F /  21.9 °C 48.4 °F /  9.1 °C 29.70in /  1005.6hPa West 0.9mph /  1.4km/h 2.0mph /  3.2km/h 44% 0.00in /  0mm 0.0 W/m2
20:42 71.4 °F /  21.9 °C 47.8 °F /  8.8 °C 29.71in /  1006hPa WSW 4.0mph /  6.4km/h 4.0mph /  6.4km/h 43% 0.00in /  0mm 0.0 W/m2
20:48 71.4 °F /  21.9 °C 47.1 °F /  8.4 °C 29.71in /  1006hPa SSW 0.9mph /  1.4km/h 3.0mph /  4.8km/h 42% 0.00in /  0mm 0.0 W/m2
20:53 71.6 °F /  22 °C 47.3 °F /  8.5 °C 29.71in /  1006hPa WSW 2.9mph /  4.7km/h 3.0mph /  4.8km/h 42% 0.00in /  0mm 0.0 W/m2
20:58 71.8 °F /  22.1 °C 46.8 °F /  8.2 °C 29.72in /  1006.3hPa Calm   3.0mph /  4.8km/h 41% 0.00in /  0mm 0.0 W/m2
21:03 72.0 °F /  22.2 °C 47.7 °F /  8.7 °C 29.72in /  1006.3hPa Calm   1.0mph /  1.6km/h 42% 0.00in /  0mm 0.0 W/m2
21:08 72.0 °F /  22.2 °C 48.2 °F /  9 °C 29.72in /  1006.3hPa Calm     43% 0.00in /  0mm 0.0 W/m2
21:13 72.0 °F /  22.2 °C 48.9 °F /  9.4 °C 29.72in /  1006.3hPa Calm     44% 0.00in /  0mm 0.0 W/m2
21:18 71.8 °F /  22.1 °C 48.7 °F /  9.3 °C 29.72in /  1006.3hPa Calm     44% 0.00in /  0mm 0.0 W/m2
21:24 71.8 °F /  22.1 °C 48.0 °F /  8.9 °C 29.72in /  1006.3hPa Calm     43% 0.00in /  0mm 0.0 W/m2
21:29 71.4 °F /  21.9 °C 49.6 °F /  9.8 °C 29.72in /  1006.3hPa Calm     46% 0.00in /  0mm 0.0 W/m2
21:34 71.2 °F /  21.8 °C 50.0 °F /  10 °C 29.72in /  1006.3hPa Calm     47% 0.00in /  0mm 0.0 W/m2
21:39 71.1 °F /  21.7 °C 49.8 °F /  9.9 °C 29.73in /  1006.7hPa Calm     47% 0.00in /  0mm 0.0 W/m2
21:44 70.9 °F /  21.6 °C 49.6 °F /  9.8 °C 29.73in /  1006.7hPa Calm     47% 0.00in /  0mm 0.0 W/m2
21:49 70.5 °F /  21.4 °C 49.8 °F /  9.9 °C 29.73in /  1006.7hPa Calm     48% 0.00in /  0mm 0.0 W/m2
21:54 70.3 °F /  21.3 °C 50.4 °F /  10.2 °C 29.73in /  1006.7hPa Calm     49% 0.00in /  0mm 0.0 W/m2
21:59 70.2 °F /  21.2 °C 51.3 °F /  10.7 °C 29.74in /  1007hPa Calm     51% 0.00in /  0mm 0.0 W/m2
22:04 70.0 °F /  21.1 °C 51.1 °F /  10.6 °C 29.74in /  1007hPa Calm     51% 0.00in /  0mm 0.0 W/m2
22:10 70.0 °F /  21.1 °C 52.5 °F /  11.4 °C 29.74in /  1007hPa Calm   1.0mph /  1.6km/h 54% 0.00in /  0mm 0.0 W/m2
22:15 69.6 °F /  20.9 °C 52.7 °F /  11.5 °C 29.74in /  1007hPa Calm   1.0mph /  1.6km/h 55% 0.00in /  0mm 0.0 W/m2
22:20 69.6 °F /  20.9 °C 52.7 °F /  11.5 °C 29.74in /  1007hPa SSE 0.9mph /  1.4km/h 2.0mph /  3.2km/h 55% 0.00in /  0mm 0.0 W/m2
22:25 69.4 °F /  20.8 °C 52.2 °F /  11.2 °C 29.74in /  1007hPa SE 0.9mph /  1.4km/h 1.0mph /  1.6km/h 54% 0.00in /  0mm 0.0 W/m2
22:30 69.3 °F /  20.7 °C 50.9 °F /  10.5 °C 29.75in /  1007.3hPa South 6.0mph /  9.7km/h 6.0mph /  9.7km/h 52% 0.00in /  0mm 0.0 W/m2
22:35 69.3 °F /  20.7 °C 48.2 °F /  9 °C 29.75in /  1007.3hPa Calm   7.0mph /  11.3km/h 47% 0.00in /  0mm 0.0 W/m2
22:41 69.4 °F /  20.8 °C 46.0 °F /  7.8 °C 29.75in /  1007.3hPa Calm   6.0mph /  9.7km/h 43% 0.00in /  0mm 0.0 W/m2
22:46 69.8 °F /  21 °C 46.2 °F /  7.9 °C 29.75in /  1007.3hPa SE 2.0mph /  3.2km/h 4.0mph /  6.4km/h 43% 0.00in /  0mm 0.0 W/m2
22:51 70.0 °F /  21.1 °C 45.1 °F /  7.3 °C 29.75in /  1007.3hPa SW 0.9mph /  1.4km/h 7.0mph /  11.3km/h 41% 0.00in /  0mm 0.0 W/m2
22:56 70.0 °F /  21.1 °C 45.9 °F /  7.7 °C 29.75in /  1007.3hPa SE 2.0mph /  3.2km/h 3.0mph /  4.8km/h 42% 0.00in /  0mm 0.0 W/m2
23:02 70.2 °F /  21.2 °C 45.3 °F /  7.4 °C 29.75in /  1007.3hPa Calm   3.0mph /  4.8km/h 41% 0.00in /  0mm 0.0 W/m2
23:05 70.2 °F /  21.2 °C 45.3 °F /  7.4 °C 29.76in /  1007.7hPa SW 0.9mph /  1.4km/h 2.0mph /  3.2km/h 41% 0.00in /  0mm 0.0 W/m2
23:08 70.2 °F /  21.2 °C 45.3 °F /  7.4 °C 29.75in /  1007.3hPa Calm   2.0mph /  3.2km/h 41% 0.00in /  0mm 0.0 W/m2
23:10 70.0 °F /  21.1 °C 45.1 °F /  7.3 °C 29.75in /  1007.3hPa Calm   2.0mph /  3.2km/h 41% 0.00in /  0mm 0.0 W/m2
23:13 70.0 °F /  21.1 °C 45.1 °F /  7.3 °C 29.76in /  1007.7hPa Calm   2.0mph /  3.2km/h 41% 0.00in /  0mm 0.0 W/m2
23:18 69.8 °F /  21 °C 45.7 °F /  7.6 °C 29.75in /  1007.3hPa Calm   1.0mph /  1.6km/h 42% 0.00in /  0mm 0.0 W/m2
23:23 69.6 °F /  20.9 °C 45.5 °F /  7.5 °C 29.76in /  1007.7hPa WSW 0.9mph /  1.4km/h 1.0mph /  1.6km/h 42% 0.00in /  0mm 0.0 W/m2
23:28 69.3 °F /  20.7 °C 45.9 °F /  7.7 °C 29.76in /  1007.7hPa Calm     43% 0.00in /  0mm 0.0 W/m2
23:33 69.3 °F /  20.7 °C 45.9 °F /  7.7 °C 29.75in /  1007.3hPa Calm   1.0mph /  1.6km/h 43% 0.00in /  0mm 0.0 W/m2
23:38 69.1 °F /  20.6 °C 45.7 °F /  7.6 °C 29.76in /  1007.7hPa Calm   2.0mph /  3.2km/h 43% 0.00in /  0mm 0.0 W/m2
23:44 68.7 °F /  20.4 °C 44.8 °F /  7.1 °C 29.76in /  1007.7hPa SSW 0.9mph /  1.4km/h 4.0mph /  6.4km/h 42% 0.00in /  0mm 0.0 W/m2
23:50 68.7 °F /  20.4 °C 44.8 °F /  7.1 °C 29.76in /  1007.7hPa Calm   2.0mph /  3.2km/h 42% 0.00in /  0mm 0.0 W/m2
23:55 68.7 °F /  20.4 °C 44.8 °F /  7.1 °C 29.76in /  1007.7hPa Calm   1.0mph /  1.6km/h 42% 0.00in /  0mm 0.0 W/m2
Olympia, Windhoek, Namibia
Compliments of Weather Underground - 3.25 mb